sensor_id;sensor_type;location;lat;lon;timestamp;P1;durP1;ratioP1;P2;durP2;ratioP2
6356;SDS011;3211;53.452;-2.264;2023-01-25T00:01:55;19.73;;;12.10;;
6356;SDS011;3211;53.452;-2.264;2023-01-25T00:04:22;14.27;;;11.50;;
6356;SDS011;3211;53.452;-2.264;2023-01-25T00:06:50;18.43;;;12.07;;
6356;SDS011;3211;53.452;-2.264;2023-01-25T00:09:17;12.63;;;11.30;;
6356;SDS011;3211;53.452;-2.264;2023-01-25T00:11:44;18.57;;;12.53;;
6356;SDS011;3211;53.452;-2.264;2023-01-25T00:14:12;16.53;;;12.77;;
6356;SDS011;3211;53.452;-2.264;2023-01-25T00:16:41;16.00;;;12.50;;
6356;SDS011;3211;53.452;-2.264;2023-01-25T00:19:08;16.60;;;11.50;;
6356;SDS011;3211;53.452;-2.264;2023-01-25T00:21:36;18.07;;;12.20;;
6356;SDS011;3211;53.452;-2.264;2023-01-25T00:24:03;15.13;;;11.23;;
6356;SDS011;3211;53.452;-2.264;2023-01-25T00:26:32;24.73;;;12.53;;
6356;SDS011;3211;53.452;-2.264;2023-01-25T00:29:00;16.17;;;11.27;;
6356;SDS011;3211;53.452;-2.264;2023-01-25T00:31:31;15.17;;;10.60;;
6356;SDS011;3211;53.452;-2.264;2023-01-25T00:34:06;21.03;;;12.27;;
6356;SDS011;3211;53.452;-2.264;2023-01-25T00:37:11;15.33;;;11.00;;
6356;SDS011;3211;53.452;-2.264;2023-01-25T00:39:48;15.93;;;11.80;;
6356;SDS011;3211;53.452;-2.264;2023-01-25T00:42:16;14.53;;;11.70;;
6356;SDS011;3211;53.452;-2.264;2023-01-25T00:44:44;14.20;;;11.47;;
6356;SDS011;3211;53.452;-2.264;2023-01-25T00:47:11;16.83;;;12.50;;
6356;SDS011;3211;53.452;-2.264;2023-01-25T00:49:40;17.07;;;11.43;;
6356;SDS011;3211;53.452;-2.264;2023-01-25T00:52:08;14.60;;;11.37;;
6356;SDS011;3211;53.452;-2.264;2023-01-25T00:54:35;13.60;;;11.60;;
6356;SDS011;3211;53.452;-2.264;2023-01-25T00:57:02;17.57;;;12.20;;
6356;SDS011;3211;53.452;-2.264;2023-01-25T00:59:29;14.80;;;12.00;;
6356;SDS011;3211;53.452;-2.264;2023-01-25T01:02:15;16.27;;;12.73;;
6356;SDS011;3211;53.452;-2.264;2023-01-25T01:05:02;14.90;;;11.73;;
6356;SDS011;3211;53.452;-2.264;2023-01-25T01:07:29;19.10;;;13.87;;
6356;SDS011;3211;53.452;-2.264;2023-01-25T01:09:56;16.70;;;12.00;;
6356;SDS011;3211;53.452;-2.264;2023-01-25T01:12:24;19.90;;;15.97;;
6356;SDS011;3211;53.452;-2.264;2023-01-25T01:14:51;20.57;;;16.33;;
6356;SDS011;3211;53.452;-2.264;2023-01-25T01:17:18;17.60;;;12.10;;
6356;SDS011;3211;53.452;-2.264;2023-01-25T01:19:45;17.27;;;12.80;;
6356;SDS011;3211;53.452;-2.264;2023-01-25T01:22:13;12.80;;;10.40;;
6356;SDS011;3211;53.452;-2.264;2023-01-25T01:24:40;13.37;;;10.53;;
6356;SDS011;3211;53.452;-2.264;2023-01-25T01:27:07;12.87;;;10.70;;
6356;SDS011;3211;53.452;-2.264;2023-01-25T01:29:34;12.33;;;9.97;;
6356;SDS011;3211;53.452;-2.264;2023-01-25T01:32:01;13.03;;;10.07;;
6356;SDS011;3211;53.452;-2.264;2023-01-25T01:34:28;15.10;;;10.30;;
6356;SDS011;3211;53.452;-2.264;2023-01-25T01:36:55;15.10;;;10.33;;
6356;SDS011;3211;53.452;-2.264;2023-01-25T01:39:23;14.03;;;10.70;;
6356;SDS011;3211;53.452;-2.264;2023-01-25T01:41:50;12.67;;;9.80;;
6356;SDS011;3211;53.452;-2.264;2023-01-25T01:44:18;11.30;;;9.50;;
6356;SDS011;3211;53.452;-2.264;2023-01-25T01:46:48;18.23;;;10.80;;
6356;SDS011;3211;53.452;-2.264;2023-01-25T01:49:18;14.20;;;10.17;;
6356;SDS011;3211;53.452;-2.264;2023-01-25T01:51:49;16.07;;;11.37;;
6356;SDS011;3211;53.452;-2.264;2023-01-25T01:54:24;13.33;;;9.93;;
6356;SDS011;3211;53.452;-2.264;2023-01-25T01:56:54;13.50;;;9.80;;
6356;SDS011;3211;53.452;-2.264;2023-01-25T01:59:25;17.20;;;11.70;;
6356;SDS011;3211;53.452;-2.264;2023-01-25T02:01:56;12.57;;;9.40;;
6356;SDS011;3211;53.452;-2.264;2023-01-25T02:04:23;11.97;;;10.13;;
6356;SDS011;3211;53.452;-2.264;2023-01-25T02:06:53;11.50;;;9.57;;
6356;SDS011;3211;53.452;-2.264;2023-01-25T02:09:26;14.37;;;10.50;;
6356;SDS011;3211;53.452;-2.264;2023-01-25T02:11:56;14.53;;;11.07;;
6356;SDS011;3211;53.452;-2.264;2023-01-25T02:14:25;12.10;;;9.80;;
6356;SDS011;3211;53.452;-2.264;2023-01-25T02:16:54;14.70;;;10.00;;
6356;SDS011;3211;53.452;-2.264;2023-01-25T02:19:24;13.80;;;9.50;;
6356;SDS011;3211;53.452;-2.264;2023-01-25T02:21:59;12.67;;;9.70;;
6356;SDS011;3211;53.452;-2.264;2023-01-25T02:24:33;13.07;;;9.53;;
6356;SDS011;3211;53.452;-2.264;2023-01-25T02:27:03;12.73;;;9.67;;
6356;SDS011;3211;53.452;-2.264;2023-01-25T02:29:30;14.33;;;9.10;;
6356;SDS011;3211;53.452;-2.264;2023-01-25T02:31:58;10.93;;;9.30;;
6356;SDS011;3211;53.452;-2.264;2023-01-25T02:34:25;11.90;;;10.17;;
6356;SDS011;3211;53.452;-2.264;2023-01-25T02:36:52;12.40;;;9.77;;
6356;SDS011;3211;53.452;-2.264;2023-01-25T02:39:19;14.90;;;10.60;;
6356;SDS011;3211;53.452;-2.264;2023-01-25T02:41:48;13.40;;;10.23;;
6356;SDS011;3211;53.452;-2.264;2023-01-25T02:44:17;17.20;;;11.37;;
6356;SDS011;3211;53.452;-2.264;2023-01-25T02:46:46;12.70;;;10.57;;
6356;SDS011;3211;53.452;-2.264;2023-01-25T02:49:13;11.83;;;10.00;;
6356;SDS011;3211;53.452;-2.264;2023-01-25T02:51:43;13.50;;;10.37;;
6356;SDS011;3211;53.452;-2.264;2023-01-25T02:54:12;13.33;;;10.57;;
6356;SDS011;3211;53.452;-2.264;2023-01-25T02:56:39;14.27;;;10.97;;
6356;SDS011;3211;53.452;-2.264;2023-01-25T02:59:06;16.80;;;10.70;;
6356;SDS011;3211;53.452;-2.264;2023-01-25T03:01:36;14.37;;;9.80;;
6356;SDS011;3211;53.452;-2.264;2023-01-25T03:04:04;13.30;;;9.77;;
6356;SDS011;3211;53.452;-2.264;2023-01-25T03:06:31;13.43;;;10.50;;
6356;SDS011;3211;53.452;-2.264;2023-01-25T03:08:59;13.93;;;10.47;;
6356;SDS011;3211;53.452;-2.264;2023-01-25T03:11:26;14.57;;;10.70;;
6356;SDS011;3211;53.452;-2.264;2023-01-25T03:13:53;17.03;;;10.87;;
6356;SDS011;3211;53.452;-2.264;2023-01-25T03:16:20;15.63;;;11.60;;
6356;SDS011;3211;53.452;-2.264;2023-01-25T03:18:51;14.63;;;10.80;;
6356;SDS011;3211;53.452;-2.264;2023-01-25T03:21:18;12.80;;;9.80;;
6356;SDS011;3211;53.452;-2.264;2023-01-25T03:23:46;13.93;;;10.70;;
6356;SDS011;3211;53.452;-2.264;2023-01-25T03:26:14;11.80;;;10.03;;
6356;SDS011;3211;53.452;-2.264;2023-01-25T03:28:43;16.33;;;11.77;;
6356;SDS011;3211;53.452;-2.264;2023-01-25T03:31:10;12.57;;;10.53;;
6356;SDS011;3211;53.452;-2.264;2023-01-25T03:33:40;14.90;;;10.93;;
6356;SDS011;3211;53.452;-2.264;2023-01-25T03:36:09;14.77;;;10.57;;
6356;SDS011;3211;53.452;-2.264;2023-01-25T03:38:36;15.93;;;10.23;;
6356;SDS011;3211;53.452;-2.264;2023-01-25T03:41:03;16.70;;;11.27;;
6356;SDS011;3211;53.452;-2.264;2023-01-25T03:43:30;13.57;;;11.43;;
6356;SDS011;3211;53.452;-2.264;2023-01-25T03:45:58;14.20;;;10.57;;
6356;SDS011;3211;53.452;-2.264;2023-01-25T03:48:26;15.90;;;10.50;;
6356;SDS011;3211;53.452;-2.264;2023-01-25T03:50:54;12.30;;;10.70;;
6356;SDS011;3211;53.452;-2.264;2023-01-25T03:53:24;13.93;;;9.93;;
6356;SDS011;3211;53.452;-2.264;2023-01-25T03:55:58;14.47;;;10.47;;
6356;SDS011;3211;53.452;-2.264;2023-01-25T03:58:27;17.67;;;11.07;;
6356;SDS011;3211;53.452;-2.264;2023-01-25T04:00:55;15.60;;;9.80;;
6356;SDS011;3211;53.452;-2.264;2023-01-25T04:03:23;14.20;;;10.43;;
6356;SDS011;3211;53.452;-2.264;2023-01-25T04:05:50;15.10;;;10.53;;
6356;SDS011;3211;53.452;-2.264;2023-01-25T04:08:18;13.87;;;10.50;;
6356;SDS011;3211;53.452;-2.264;2023-01-25T04:10:49;15.30;;;11.60;;
6356;SDS011;3211;53.452;-2.264;2023-01-25T04:13:17;14.50;;;11.30;;
6356;SDS011;3211;53.452;-2.264;2023-01-25T04:15:45;12.23;;;10.47;;
6356;SDS011;3211;53.452;-2.264;2023-01-25T04:18:12;15.17;;;11.27;;
6356;SDS011;3211;53.452;-2.264;2023-01-25T04:20:39;18.47;;;12.43;;
6356;SDS011;3211;53.452;-2.264;2023-01-25T04:23:06;15.30;;;11.30;;
6356;SDS011;3211;53.452;-2.264;2023-01-25T04:25:33;13.10;;;10.70;;
6356;SDS011;3211;53.452;-2.264;2023-01-25T04:28:02;14.50;;;10.57;;
6356;SDS011;3211;53.452;-2.264;2023-01-25T04:30:29;14.60;;;10.83;;
6356;SDS011;3211;53.452;-2.264;2023-01-25T04:33:00;16.27;;;11.77;;
6356;SDS011;3211;53.452;-2.264;2023-01-25T04:35:28;16.00;;;11.70;;
6356;SDS011;3211;53.452;-2.264;2023-01-25T04:37:56;14.60;;;10.73;;
6356;SDS011;3211;53.452;-2.264;2023-01-25T04:40:24;15.80;;;11.80;;
6356;SDS011;3211;53.452;-2.264;2023-01-25T04:42:53;15.97;;;10.87;;
6356;SDS011;3211;53.452;-2.264;2023-01-25T04:45:21;15.90;;;11.63;;
6356;SDS011;3211;53.452;-2.264;2023-01-25T04:47:49;16.40;;;11.93;;
6356;SDS011;3211;53.452;-2.264;2023-01-25T04:50:21;15.07;;;11.60;;
6356;SDS011;3211;53.452;-2.264;2023-01-25T04:52:48;16.53;;;11.43;;
6356;SDS011;3211;53.452;-2.264;2023-01-25T04:55:15;14.53;;;11.80;;
6356;SDS011;3211;53.452;-2.264;2023-01-25T04:57:42;17.70;;;11.73;;
6356;SDS011;3211;53.452;-2.264;2023-01-25T05:00:10;12.40;;;10.73;;
6356;SDS011;3211;53.452;-2.264;2023-01-25T05:02:39;15.93;;;11.70;;
6356;SDS011;3211;53.452;-2.264;2023-01-25T05:05:06;15.00;;;10.77;;
6356;SDS011;3211;53.452;-2.264;2023-01-25T05:07:33;16.20;;;11.97;;
6356;SDS011;3211;53.452;-2.264;2023-01-25T05:10:01;13.67;;;11.27;;
6356;SDS011;3211;53.452;-2.264;2023-01-25T05:12:28;15.77;;;11.53;;
6356;SDS011;3211;53.452;-2.264;2023-01-25T05:14:55;19.90;;;12.50;;
6356;SDS011;3211;53.452;-2.264;2023-01-25T05:17:22;19.20;;;13.07;;
6356;SDS011;3211;53.452;-2.264;2023-01-25T05:19:50;18.50;;;12.40;;
6356;SDS011;3211;53.452;-2.264;2023-01-25T05:22:18;18.90;;;11.63;;
6356;SDS011;3211;53.452;-2.264;2023-01-25T05:24:46;16.40;;;12.23;;
6356;SDS011;3211;53.452;-2.264;2023-01-25T05:27:14;18.23;;;12.30;;
6356;SDS011;3211;53.452;-2.264;2023-01-25T05:29:42;21.67;;;13.23;;
6356;SDS011;3211;53.452;-2.264;2023-01-25T05:32:10;18.00;;;13.57;;
6356;SDS011;3211;53.452;-2.264;2023-01-25T05:34:39;15.77;;;12.20;;
6356;SDS011;3211;53.452;-2.264;2023-01-25T05:37:08;16.10;;;12.80;;
6356;SDS011;3211;53.452;-2.264;2023-01-25T05:39:36;26.00;;;12.60;;
6356;SDS011;3211;53.452;-2.264;2023-01-25T05:42:03;18.43;;;13.63;;
6356;SDS011;3211;53.452;-2.264;2023-01-25T05:44:35;19.23;;;13.40;;
6356;SDS011;3211;53.452;-2.264;2023-01-25T05:47:02;19.30;;;13.27;;
6356;SDS011;3211;53.452;-2.264;2023-01-25T05:49:29;16.77;;;12.63;;
6356;SDS011;3211;53.452;-2.264;2023-01-25T05:51:56;16.60;;;12.67;;
6356;SDS011;3211;53.452;-2.264;2023-01-25T05:54:25;18.37;;;13.93;;
6356;SDS011;3211;53.452;-2.264;2023-01-25T05:56:52;14.80;;;11.87;;
6356;SDS011;3211;53.452;-2.264;2023-01-25T05:59:19;17.40;;;13.57;;
6356;SDS011;3211;53.452;-2.264;2023-01-25T06:01:46;17.53;;;12.80;;
6356;SDS011;3211;53.452;-2.264;2023-01-25T06:04:13;17.70;;;13.00;;
6356;SDS011;3211;53.452;-2.264;2023-01-25T06:06:41;17.67;;;13.03;;
6356;SDS011;3211;53.452;-2.264;2023-01-25T06:09:09;26.70;;;13.00;;
6356;SDS011;3211;53.452;-2.264;2023-01-25T06:11:38;20.47;;;13.20;;
6356;SDS011;3211;53.452;-2.264;2023-01-25T06:14:05;17.37;;;12.00;;
6356;SDS011;3211;53.452;-2.264;2023-01-25T06:16:32;18.30;;;12.90;;
6356;SDS011;3211;53.452;-2.264;2023-01-25T06:18:59;21.30;;;13.80;;
6356;SDS011;3211;53.452;-2.264;2023-01-25T06:21:26;16.77;;;13.43;;
6356;SDS011;3211;53.452;-2.264;2023-01-25T06:23:53;20.50;;;12.90;;
6356;SDS011;3211;53.452;-2.264;2023-01-25T06:26:19;24.43;;;12.87;;
6356;SDS011;3211;53.452;-2.264;2023-01-25T06:28:48;19.10;;;14.40;;
6356;SDS011;3211;53.452;-2.264;2023-01-25T06:31:15;20.30;;;16.07;;
6356;SDS011;3211;53.452;-2.264;2023-01-25T06:33:46;20.63;;;15.20;;
6356;SDS011;3211;53.452;-2.264;2023-01-25T06:36:14;21.90;;;15.00;;
6356;SDS011;3211;53.452;-2.264;2023-01-25T06:38:46;21.17;;;14.87;;
6356;SDS011;3211;53.452;-2.264;2023-01-25T06:41:13;23.17;;;15.13;;
6356;SDS011;3211;53.452;-2.264;2023-01-25T06:43:40;21.20;;;14.63;;
6356;SDS011;3211;53.452;-2.264;2023-01-25T06:46:09;19.77;;;14.07;;
6356;SDS011;3211;53.452;-2.264;2023-01-25T06:48:37;19.30;;;14.33;;
6356;SDS011;3211;53.452;-2.264;2023-01-25T06:51:05;16.70;;;13.20;;
6356;SDS011;3211;53.452;-2.264;2023-01-25T06:53:34;19.20;;;14.10;;
6356;SDS011;3211;53.452;-2.264;2023-01-25T06:56:04;20.57;;;13.47;;
6356;SDS011;3211;53.452;-2.264;2023-01-25T07:01:03;20.20;;;14.17;;
6356;SDS011;3211;53.452;-2.264;2023-01-25T07:03:33;18.93;;;14.13;;
6356;SDS011;3211;53.452;-2.264;2023-01-25T07:06:00;19.97;;;13.60;;
6356;SDS011;3211;53.452;-2.264;2023-01-25T07:08:28;20.13;;;13.50;;
6356;SDS011;3211;53.452;-2.264;2023-01-25T07:10:56;20.70;;;14.70;;
6356;SDS011;3211;53.452;-2.264;2023-01-25T07:13:25;19.20;;;13.33;;
6356;SDS011;3211;53.452;-2.264;2023-01-25T07:15:54;21.30;;;14.70;;
6356;SDS011;3211;53.452;-2.264;2023-01-25T07:18:21;19.93;;;14.40;;
6356;SDS011;3211;53.452;-2.264;2023-01-25T07:20:50;19.27;;;12.13;;
6356;SDS011;3211;53.452;-2.264;2023-01-25T07:23:17;19.73;;;13.43;;
6356;SDS011;3211;53.452;-2.264;2023-01-25T07:25:44;18.57;;;14.00;;
6356;SDS011;3211;53.452;-2.264;2023-01-25T07:28:12;21.07;;;13.33;;
6356;SDS011;3211;53.452;-2.264;2023-01-25T07:30:39;21.47;;;12.97;;
6356;SDS011;3211;53.452;-2.264;2023-01-25T07:33:06;20.60;;;12.37;;
6356;SDS011;3211;53.452;-2.264;2023-01-25T07:35:33;18.40;;;12.33;;
6356;SDS011;3211;53.452;-2.264;2023-01-25T07:38:02;19.47;;;12.77;;
6356;SDS011;3211;53.452;-2.264;2023-01-25T07:40:29;18.70;;;13.47;;
6356;SDS011;3211;53.452;-2.264;2023-01-25T07:42:57;20.53;;;12.83;;
6356;SDS011;3211;53.452;-2.264;2023-01-25T07:45:24;18.53;;;13.67;;
6356;SDS011;3211;53.452;-2.264;2023-01-25T07:47:54;19.73;;;13.87;;
6356;SDS011;3211;53.452;-2.264;2023-01-25T07:50:23;18.23;;;13.40;;
6356;SDS011;3211;53.452;-2.264;2023-01-25T07:52:50;22.07;;;14.37;;
6356;SDS011;3211;53.452;-2.264;2023-01-25T07:55:18;23.20;;;15.47;;
6356;SDS011;3211;53.452;-2.264;2023-01-25T07:57:45;21.87;;;15.03;;
6356;SDS011;3211;53.452;-2.264;2023-01-25T08:00:12;26.93;;;14.93;;
6356;SDS011;3211;53.452;-2.264;2023-01-25T08:02:40;22.50;;;14.63;;
6356;SDS011;3211;53.452;-2.264;2023-01-25T08:05:07;26.60;;;14.87;;
6356;SDS011;3211;53.452;-2.264;2023-01-25T08:07:35;23.87;;;16.17;;
6356;SDS011;3211;53.452;-2.264;2023-01-25T08:10:02;24.63;;;16.20;;
6356;SDS011;3211;53.452;-2.264;2023-01-25T08:12:32;19.40;;;14.57;;
6356;SDS011;3211;53.452;-2.264;2023-01-25T08:14:59;25.20;;;14.90;;
6356;SDS011;3211;53.452;-2.264;2023-01-25T08:17:26;22.57;;;15.77;;
6356;SDS011;3211;53.452;-2.264;2023-01-25T08:19:56;20.13;;;14.70;;
6356;SDS011;3211;53.452;-2.264;2023-01-25T08:22:24;21.60;;;14.67;;
6356;SDS011;3211;53.452;-2.264;2023-01-25T08:24:51;21.57;;;14.10;;
6356;SDS011;3211;53.452;-2.264;2023-01-25T08:27:18;18.50;;;13.53;;
6356;SDS011;3211;53.452;-2.264;2023-01-25T08:29:47;21.90;;;14.00;;
6356;SDS011;3211;53.452;-2.264;2023-01-25T08:32:15;18.87;;;13.93;;
6356;SDS011;3211;53.452;-2.264;2023-01-25T08:34:42;19.67;;;14.30;;
6356;SDS011;3211;53.452;-2.264;2023-01-25T08:37:09;22.20;;;13.50;;
6356;SDS011;3211;53.452;-2.264;2023-01-25T08:39:37;22.40;;;14.20;;
6356;SDS011;3211;53.452;-2.264;2023-01-25T08:42:04;23.27;;;13.70;;
6356;SDS011;3211;53.452;-2.264;2023-01-25T08:44:31;17.50;;;12.57;;
6356;SDS011;3211;53.452;-2.264;2023-01-25T08:46:59;23.57;;;13.37;;
6356;SDS011;3211;53.452;-2.264;2023-01-25T08:49:26;20.93;;;13.50;;
6356;SDS011;3211;53.452;-2.264;2023-01-25T08:51:55;24.50;;;13.10;;
6356;SDS011;3211;53.452;-2.264;2023-01-25T08:54:23;23.77;;;13.40;;
6356;SDS011;3211;53.452;-2.264;2023-01-25T08:56:50;24.20;;;13.33;;
6356;SDS011;3211;53.452;-2.264;2023-01-25T08:59:17;19.80;;;13.63;;
6356;SDS011;3211;53.452;-2.264;2023-01-25T09:01:44;19.27;;;12.83;;
6356;SDS011;3211;53.452;-2.264;2023-01-25T09:04:13;18.37;;;12.00;;
6356;SDS011;3211;53.452;-2.264;2023-01-25T09:06:40;22.20;;;12.53;;
6356;SDS011;3211;53.452;-2.264;2023-01-25T09:09:07;18.23;;;11.97;;
6356;SDS011;3211;53.452;-2.264;2023-01-25T09:11:34;18.47;;;11.97;;
6356;SDS011;3211;53.452;-2.264;2023-01-25T09:14:02;18.10;;;12.17;;
6356;SDS011;3211;53.452;-2.264;2023-01-25T09:16:29;22.00;;;11.97;;
6356;SDS011;3211;53.452;-2.264;2023-01-25T09:18:57;17.47;;;11.57;;
6356;SDS011;3211;53.452;-2.264;2023-01-25T09:21:26;14.23;;;11.10;;
6356;SDS011;3211;53.452;-2.264;2023-01-25T09:23:54;18.60;;;12.23;;
6356;SDS011;3211;53.452;-2.264;2023-01-25T09:26:21;19.73;;;11.60;;
6356;SDS011;3211;53.452;-2.264;2023-01-25T09:28:48;17.27;;;10.13;;
6356;SDS011;3211;53.452;-2.264;2023-01-25T09:31:17;18.53;;;10.00;;
6356;SDS011;3211;53.452;-2.264;2023-01-25T09:33:45;19.60;;;10.50;;
6356;SDS011;3211;53.452;-2.264;2023-01-25T09:36:12;15.97;;;11.47;;
6356;SDS011;3211;53.452;-2.264;2023-01-25T09:38:41;15.53;;;10.80;;
6356;SDS011;3211;53.452;-2.264;2023-01-25T09:41:13;16.23;;;11.00;;
6356;SDS011;3211;53.452;-2.264;2023-01-25T09:43:53;21.80;;;13.40;;
6356;SDS011;3211;53.452;-2.264;2023-01-25T09:46:30;18.47;;;11.07;;
6356;SDS011;3211;53.452;-2.264;2023-01-25T09:49:06;20.97;;;13.80;;
6356;SDS011;3211;53.452;-2.264;2023-01-25T09:51:50;17.23;;;11.37;;
6356;SDS011;3211;53.452;-2.264;2023-01-25T09:54:29;21.90;;;14.97;;
6356;SDS011;3211;53.452;-2.264;2023-01-25T09:56:58;22.37;;;12.33;;
6356;SDS011;3211;53.452;-2.264;2023-01-25T09:59:26;24.30;;;15.40;;
6356;SDS011;3211;53.452;-2.264;2023-01-25T10:01:56;21.80;;;12.73;;
6356;SDS011;3211;53.452;-2.264;2023-01-25T10:04:27;21.23;;;12.77;;
6356;SDS011;3211;53.452;-2.264;2023-01-25T10:06:57;31.77;;;18.00;;
6356;SDS011;3211;53.452;-2.264;2023-01-25T10:09:33;20.27;;;12.73;;
6356;SDS011;3211;53.452;-2.264;2023-01-25T10:12:07;32.00;;;18.97;;
6356;SDS011;3211;53.452;-2.264;2023-01-25T10:14:40;33.03;;;17.00;;
6356;SDS011;3211;53.452;-2.264;2023-01-25T10:17:10;18.13;;;12.40;;
6356;SDS011;3211;53.452;-2.264;2023-01-25T10:19:48;18.77;;;12.37;;
6356;SDS011;3211;53.452;-2.264;2023-01-25T10:22:28;16.90;;;12.20;;
6356;SDS011;3211;53.452;-2.264;2023-01-25T10:25:14;15.80;;;11.60;;
6356;SDS011;3211;53.452;-2.264;2023-01-25T10:27:49;17.60;;;11.93;;
6356;SDS011;3211;53.452;-2.264;2023-01-25T10:30:29;48.83;;;21.90;;
6356;SDS011;3211;53.452;-2.264;2023-01-25T10:33:01;22.70;;;12.90;;
6356;SDS011;3211;53.452;-2.264;2023-01-25T10:35:37;17.13;;;11.47;;
6356;SDS011;3211;53.452;-2.264;2023-01-25T10:38:06;20.23;;;12.27;;
6356;SDS011;3211;53.452;-2.264;2023-01-25T10:40:42;15.67;;;10.47;;
6356;SDS011;3211;53.452;-2.264;2023-01-25T10:43:13;29.20;;;16.07;;
6356;SDS011;3211;53.452;-2.264;2023-01-25T10:45:43;23.27;;;12.80;;
6356;SDS011;3211;53.452;-2.264;2023-01-25T10:48:13;15.10;;;10.90;;
6356;SDS011;3211;53.452;-2.264;2023-01-25T10:50:44;17.90;;;12.37;;
6356;SDS011;3211;53.452;-2.264;2023-01-25T10:53:24;19.47;;;12.97;;
6356;SDS011;3211;53.452;-2.264;2023-01-25T10:56:04;20.37;;;11.80;;
6356;SDS011;3211;53.452;-2.264;2023-01-25T10:59:04;19.97;;;13.90;;
6356;SDS011;3211;53.452;-2.264;2023-01-25T11:01:33;20.67;;;12.13;;
6356;SDS011;3211;53.452;-2.264;2023-01-25T11:04:02;17.43;;;11.67;;
6356;SDS011;3211;53.452;-2.264;2023-01-25T11:06:46;18.57;;;11.40;;
6356;SDS011;3211;53.452;-2.264;2023-01-25T11:09:28;17.87;;;11.40;;
6356;SDS011;3211;53.452;-2.264;2023-01-25T11:11:59;18.97;;;13.63;;
6356;SDS011;3211;53.452;-2.264;2023-01-25T11:14:28;22.83;;;12.93;;
6356;SDS011;3211;53.452;-2.264;2023-01-25T11:16:57;18.60;;;10.90;;
6356;SDS011;3211;53.452;-2.264;2023-01-25T11:19:26;16.10;;;11.10;;
6356;SDS011;3211;53.452;-2.264;2023-01-25T11:21:57;15.60;;;11.47;;
6356;SDS011;3211;53.452;-2.264;2023-01-25T11:24:26;17.37;;;12.13;;
6356;SDS011;3211;53.452;-2.264;2023-01-25T11:30:05;21.53;;;11.53;;
6356;SDS011;3211;53.452;-2.264;2023-01-25T11:32:34;17.87;;;10.67;;
6356;SDS011;3211;53.452;-2.264;2023-01-25T11:35:04;17.60;;;11.27;;
6356;SDS011;3211;53.452;-2.264;2023-01-25T11:37:40;16.67;;;11.10;;
6356;SDS011;3211;53.452;-2.264;2023-01-25T11:40:21;17.83;;;11.00;;
6356;SDS011;3211;53.452;-2.264;2023-01-25T11:42:58;18.43;;;10.70;;
6356;SDS011;3211;53.452;-2.264;2023-01-25T11:45:43;15.30;;;10.03;;
6356;SDS011;3211;53.452;-2.264;2023-01-25T11:48:42;14.83;;;11.40;;
6356;SDS011;3211;53.452;-2.264;2023-01-25T11:51:21;16.37;;;10.83;;
6356;SDS011;3211;53.452;-2.264;2023-01-25T11:53:55;13.67;;;10.70;;
6356;SDS011;3211;53.452;-2.264;2023-01-25T11:56:34;19.63;;;10.87;;
6356;SDS011;3211;53.452;-2.264;2023-01-25T11:59:32;17.30;;;10.90;;
6356;SDS011;3211;53.452;-2.264;2023-01-25T12:05:19;16.63;;;11.27;;
6356;SDS011;3211;53.452;-2.264;2023-01-25T12:08:00;17.30;;;11.40;;
6356;SDS011;3211;53.452;-2.264;2023-01-25T12:10:42;20.10;;;11.43;;
6356;SDS011;3211;53.452;-2.264;2023-01-25T12:13:20;17.57;;;12.33;;
6356;SDS011;3211;53.452;-2.264;2023-01-25T12:15:59;22.70;;;13.53;;
6356;SDS011;3211;53.452;-2.264;2023-01-25T12:21:48;22.83;;;12.80;;
6356;SDS011;3211;53.452;-2.264;2023-01-25T12:24:31;15.07;;;11.30;;
6356;SDS011;3211;53.452;-2.264;2023-01-25T12:27:08;15.47;;;10.60;;
6356;SDS011;3211;53.452;-2.264;2023-01-25T12:29:45;19.50;;;12.60;;
6356;SDS011;3211;53.452;-2.264;2023-01-25T12:32:19;34.60;;;16.93;;
6356;SDS011;3211;53.452;-2.264;2023-01-25T12:34:51;23.10;;;14.47;;
6356;SDS011;3211;53.452;-2.264;2023-01-25T12:37:27;17.60;;;11.90;;
6356;SDS011;3211;53.452;-2.264;2023-01-25T12:40:02;15.43;;;11.20;;
6356;SDS011;3211;53.452;-2.264;2023-01-25T12:42:35;17.17;;;11.90;;
6356;SDS011;3211;53.452;-2.264;2023-01-25T12:45:09;18.20;;;11.37;;
6356;SDS011;3211;53.452;-2.264;2023-01-25T12:47:43;15.60;;;11.40;;
6356;SDS011;3211;53.452;-2.264;2023-01-25T12:50:16;13.77;;;10.20;;
6356;SDS011;3211;53.452;-2.264;2023-01-25T12:52:48;15.03;;;10.70;;
6356;SDS011;3211;53.452;-2.264;2023-01-25T12:55:19;16.03;;;10.10;;
6356;SDS011;3211;53.452;-2.264;2023-01-25T12:57:48;17.30;;;9.83;;
6356;SDS011;3211;53.452;-2.264;2023-01-25T13:00:20;14.20;;;8.37;;
6356;SDS011;3211;53.452;-2.264;2023-01-25T13:03:14;11.17;;;8.17;;
6356;SDS011;3211;53.452;-2.264;2023-01-25T13:06:10;11.57;;;7.30;;
6356;SDS011;3211;53.452;-2.264;2023-01-25T13:08:45;12.23;;;7.50;;
6356;SDS011;3211;53.452;-2.264;2023-01-25T13:11:19;10.80;;;7.73;;
6356;SDS011;3211;53.452;-2.264;2023-01-25T13:13:49;9.70;;;6.17;;
6356;SDS011;3211;53.452;-2.264;2023-01-25T13:16:23;9.10;;;6.53;;
6356;SDS011;3211;53.452;-2.264;2023-01-25T13:19:01;9.23;;;6.27;;
6356;SDS011;3211;53.452;-2.264;2023-01-25T13:21:38;9.97;;;6.87;;
6356;SDS011;3211;53.452;-2.264;2023-01-25T13:24:18;10.33;;;6.57;;
6356;SDS011;3211;53.452;-2.264;2023-01-25T13:26:49;8.40;;;6.20;;
6356;SDS011;3211;53.452;-2.264;2023-01-25T13:32:51;6.83;;;4.80;;
6356;SDS011;3211;53.452;-2.264;2023-01-25T13:35:26;10.90;;;4.87;;
6356;SDS011;3211;53.452;-2.264;2023-01-25T13:37:58;4.60;;;3.63;;
6356;SDS011;3211;53.452;-2.264;2023-01-25T13:40:32;6.87;;;3.67;;
6356;SDS011;3211;53.452;-2.264;2023-01-25T13:43:01;3.97;;;3.40;;
6356;SDS011;3211;53.452;-2.264;2023-01-25T13:45:31;6.33;;;3.50;;
6356;SDS011;3211;53.452;-2.264;2023-01-25T13:48:02;4.60;;;3.37;;
6356;SDS011;3211;53.452;-2.264;2023-01-25T13:50:42;6.10;;;2.93;;
6356;SDS011;3211;53.452;-2.264;2023-01-25T13:53:22;7.80;;;3.87;;
6356;SDS011;3211;53.452;-2.264;2023-01-25T13:55:51;5.10;;;3.10;;
6356;SDS011;3211;53.452;-2.264;2023-01-25T13:58:20;6.17;;;3.13;;
6356;SDS011;3211;53.452;-2.264;2023-01-25T14:00:50;5.20;;;3.10;;
6356;SDS011;3211;53.452;-2.264;2023-01-25T14:03:21;4.43;;;3.30;;
6356;SDS011;3211;53.452;-2.264;2023-01-25T14:05:54;3.30;;;2.63;;
6356;SDS011;3211;53.452;-2.264;2023-01-25T14:08:22;5.83;;;3.00;;
6356;SDS011;3211;53.452;-2.264;2023-01-25T14:10:51;4.33;;;3.57;;
6356;SDS011;3211;53.452;-2.264;2023-01-25T14:13:20;4.97;;;3.30;;
6356;SDS011;3211;53.452;-2.264;2023-01-25T14:15:50;4.40;;;3.50;;
6356;SDS011;3211;53.452;-2.264;2023-01-25T14:18:20;6.30;;;4.30;;
6356;SDS011;3211;53.452;-2.264;2023-01-25T14:21:08;6.87;;;4.47;;
6356;SDS011;3211;53.452;-2.264;2023-01-25T14:23:36;4.33;;;3.57;;
6356;SDS011;3211;53.452;-2.264;2023-01-25T14:26:10;4.17;;;2.67;;
6356;SDS011;3211;53.452;-2.264;2023-01-25T14:28:42;5.00;;;3.30;;
6356;SDS011;3211;53.452;-2.264;2023-01-25T14:31:12;4.73;;;2.67;;
6356;SDS011;3211;53.452;-2.264;2023-01-25T14:33:45;3.20;;;2.23;;
6356;SDS011;3211;53.452;-2.264;2023-01-25T14:36:20;8.20;;;2.90;;
6356;SDS011;3211;53.452;-2.264;2023-01-25T14:38:47;4.37;;;2.13;;
6356;SDS011;3211;53.452;-2.264;2023-01-25T14:41:16;8.70;;;3.70;;
6356;SDS011;3211;53.452;-2.264;2023-01-25T14:43:45;7.23;;;2.20;;
6356;SDS011;3211;53.452;-2.264;2023-01-25T14:46:18;4.10;;;2.53;;
6356;SDS011;3211;53.452;-2.264;2023-01-25T14:48:46;9.27;;;2.70;;
6356;SDS011;3211;53.452;-2.264;2023-01-25T14:51:14;13.80;;;2.80;;
6356;SDS011;3211;53.452;-2.264;2023-01-25T14:53:48;8.00;;;2.60;;
6356;SDS011;3211;53.452;-2.264;2023-01-25T14:56:25;8.20;;;2.80;;
6356;SDS011;3211;53.452;-2.264;2023-01-25T14:58:58;9.53;;;2.67;;
6356;SDS011;3211;53.452;-2.264;2023-01-25T15:01:30;9.27;;;3.10;;
6356;SDS011;3211;53.452;-2.264;2023-01-25T15:04:00;9.43;;;2.53;;
6356;SDS011;3211;53.452;-2.264;2023-01-25T15:06:28;13.00;;;3.70;;
6356;SDS011;3211;53.452;-2.264;2023-01-25T15:08:56;11.00;;;3.10;;
6356;SDS011;3211;53.452;-2.264;2023-01-25T15:11:27;10.13;;;2.90;;
6356;SDS011;3211;53.452;-2.264;2023-01-25T15:14:15;12.07;;;3.07;;